sensor_id;sensor_type;location;lat;lon;timestamp;pressure;altitude;pressure_sealevel;temperature
19644;BMP180;9970;-36.854;174.870;2023-02-01T00:00:36;100716.00;;;22.30
19644;BMP180;9970;-36.854;174.870;2023-02-01T00:03:09;100716.00;;;22.40
19644;BMP180;9970;-36.854;174.870;2023-02-01T00:05:43;100722.00;;;22.40
19644;BMP180;9970;-36.854;174.870;2023-02-01T00:08:16;100722.00;;;22.40
19644;BMP180;9970;-36.854;174.870;2023-02-01T00:10:57;100721.00;;;22.40
19644;BMP180;9970;-36.854;174.870;2023-02-01T00:13:37;100721.00;;;22.40
19644;BMP180;9970;-36.854;174.870;2023-02-01T00:16:18;100717.00;;;22.40
19644;BMP180;9970;-36.854;174.870;2023-02-01T00:18:56;100721.00;;;22.40
19644;BMP180;9970;-36.854;174.870;2023-02-01T00:21:26;100720.00;;;22.40
19644;BMP180;9970;-36.854;174.870;2023-02-01T00:24:03;100726.00;;;22.40
19644;BMP180;9970;-36.854;174.870;2023-02-01T00:26:38;100720.00;;;22.50
19644;BMP180;9970;-36.854;174.870;2023-02-01T00:29:16;100720.00;;;22.50
19644;BMP180;9970;-36.854;174.870;2023-02-01T00:31:52;100719.00;;;22.50
19644;BMP180;9970;-36.854;174.870;2023-02-01T00:34:27;100714.00;;;22.50
19644;BMP180;9970;-36.854;174.870;2023-02-01T00:37:00;100714.00;;;22.50
19644;BMP180;9970;-36.854;174.870;2023-02-01T00:39:33;100710.00;;;22.50
19644;BMP180;9970;-36.854;174.870;2023-02-01T00:42:06;100711.00;;;22.50
19644;BMP180;9970;-36.854;174.870;2023-02-01T00:44:39;100705.00;;;22.60
19644;BMP180;9970;-36.854;174.870;2023-02-01T00:47:11;100705.00;;;22.70
19644;BMP180;9970;-36.854;174.870;2023-02-01T00:49:45;100707.00;;;22.70
19644;BMP180;9970;-36.854;174.870;2023-02-01T00:52:20;100705.00;;;22.70
19644;BMP180;9970;-36.854;174.870;2023-02-01T00:54:53;100698.00;;;22.70
19644;BMP180;9970;-36.854;174.870;2023-02-01T00:57:27;100691.00;;;22.70
19644;BMP180;9970;-36.854;174.870;2023-02-01T01:00:01;100693.00;;;22.70
19644;BMP180;9970;-36.854;174.870;2023-02-01T01:02:34;100692.00;;;22.70
19644;BMP180;9970;-36.854;174.870;2023-02-01T01:05:07;100688.00;;;22.70
19644;BMP180;9970;-36.854;174.870;2023-02-01T01:07:40;100684.00;;;22.80
19644;BMP180;9970;-36.854;174.870;2023-02-01T01:10:13;100690.00;;;22.80
19644;BMP180;9970;-36.854;174.870;2023-02-01T01:12:46;100682.00;;;22.80
19644;BMP180;9970;-36.854;174.870;2023-02-01T01:15:19;100669.00;;;22.80
19644;BMP180;9970;-36.854;174.870;2023-02-01T01:17:52;100678.00;;;22.80
19644;BMP180;9970;-36.854;174.870;2023-02-01T01:20:25;100676.00;;;22.90
19644;BMP180;9970;-36.854;174.870;2023-02-01T01:22:58;100674.00;;;22.90
19644;BMP180;9970;-36.854;174.870;2023-02-01T01:25:31;100688.00;;;23.00
19644;BMP180;9970;-36.854;174.870;2023-02-01T01:28:03;100685.00;;;23.00
19644;BMP180;9970;-36.854;174.870;2023-02-01T01:30:37;100682.00;;;23.00
19644;BMP180;9970;-36.854;174.870;2023-02-01T01:33:09;100681.00;;;23.00
19644;BMP180;9970;-36.854;174.870;2023-02-01T01:35:46;100683.00;;;23.00
19644;BMP180;9970;-36.854;174.870;2023-02-01T01:38:18;100694.00;;;23.10
19644;BMP180;9970;-36.854;174.870;2023-02-01T01:40:51;100691.00;;;23.10
19644;BMP180;9970;-36.854;174.870;2023-02-01T01:43:24;100688.00;;;23.10
19644;BMP180;9970;-36.854;174.870;2023-02-01T01:46:09;100689.00;;;23.10
19644;BMP180;9970;-36.854;174.870;2023-02-01T01:48:39;100687.00;;;23.10
19644;BMP180;9970;-36.854;174.870;2023-02-01T01:51:13;100702.00;;;23.10
19644;BMP180;9970;-36.854;174.870;2023-02-01T01:53:53;100689.00;;;23.10
19644;BMP180;9970;-36.854;174.870;2023-02-01T01:56:24;100692.00;;;23.10
19644;BMP180;9970;-36.854;174.870;2023-02-01T01:58:59;100694.00;;;23.10
19644;BMP180;9970;-36.854;174.870;2023-02-01T02:01:32;100690.00;;;23.20
19644;BMP180;9970;-36.854;174.870;2023-02-01T02:04:05;100687.00;;;23.20
19644;BMP180;9970;-36.854;174.870;2023-02-01T02:06:40;100692.00;;;23.20
19644;BMP180;9970;-36.854;174.870;2023-02-01T02:09:13;100691.00;;;23.20
19644;BMP180;9970;-36.854;174.870;2023-02-01T02:11:46;100691.00;;;23.20
19644;BMP180;9970;-36.854;174.870;2023-02-01T02:14:20;100687.00;;;23.20
19644;BMP180;9970;-36.854;174.870;2023-02-01T02:26:11;100682.00;;;23.30
19644;BMP180;9970;-36.854;174.870;2023-02-01T02:32:08;100683.00;;;23.30
19644;BMP180;9970;-36.854;174.870;2023-02-01T02:35:18;100683.00;;;23.20
19644;BMP180;9970;-36.854;174.870;2023-02-01T02:37:34;100692.00;;;23.20
19644;BMP180;9970;-36.854;174.870;2023-02-01T02:43:05;100689.00;;;23.20
19644;BMP180;9970;-36.854;174.870;2023-02-01T02:46:01;100688.00;;;23.20
19644;BMP180;9970;-36.854;174.870;2023-02-01T02:49:11;100687.00;;;23.10
19644;BMP180;9970;-36.854;174.870;2023-02-01T02:51:49;100697.00;;;23.10
19644;BMP180;9970;-36.854;174.870;2023-02-01T02:54:41;100688.00;;;23.00
19644;BMP180;9970;-36.854;174.870;2023-02-01T03:00:27;100680.00;;;22.90
19644;BMP180;9970;-36.854;174.870;2023-02-01T03:03:15;100684.00;;;22.90
19644;BMP180;9970;-36.854;174.870;2023-02-01T03:06:11;100671.00;;;22.90
19644;BMP180;9970;-36.854;174.870;2023-02-01T03:08:40;100670.00;;;22.90
19644;BMP180;9970;-36.854;174.870;2023-02-01T03:11:15;100668.00;;;22.90
19644;BMP180;9970;-36.854;174.870;2023-02-01T03:13:56;100664.00;;;22.90
19644;BMP180;9970;-36.854;174.870;2023-02-01T03:16:43;100670.00;;;22.90
19644;BMP180;9970;-36.854;174.870;2023-02-01T03:19:23;100677.00;;;22.90
19644;BMP180;9970;-36.854;174.870;2023-02-01T03:21:55;100673.00;;;22.90
19644;BMP180;9970;-36.854;174.870;2023-02-01T03:24:43;100663.00;;;22.90
19644;BMP180;9970;-36.854;174.870;2023-02-01T03:32:54;100670.00;;;22.90
19644;BMP180;9970;-36.854;174.870;2023-02-01T03:38:32;100668.00;;;22.90
19644;BMP180;9970;-36.854;174.870;2023-02-01T03:41:11;100668.00;;;22.90
19644;BMP180;9970;-36.854;174.870;2023-02-01T03:44:02;100669.00;;;22.90
19644;BMP180;9970;-36.854;174.870;2023-02-01T03:46:38;100668.00;;;22.80
19644;BMP180;9970;-36.854;174.870;2023-02-01T03:49:13;100663.00;;;22.80
19644;BMP180;9970;-36.854;174.870;2023-02-01T03:51:46;100665.00;;;22.90
19644;BMP180;9970;-36.854;174.870;2023-02-01T03:54:19;100665.00;;;22.80
19644;BMP180;9970;-36.854;174.870;2023-02-01T03:56:54;100662.00;;;22.80
19644;BMP180;9970;-36.854;174.870;2023-02-01T03:59:28;100659.00;;;22.80
19644;BMP180;9970;-36.854;174.870;2023-02-01T04:02:01;100657.00;;;22.80
19644;BMP180;9970;-36.854;174.870;2023-02-01T04:04:34;100653.00;;;22.70
19644;BMP180;9970;-36.854;174.870;2023-02-01T04:07:07;100659.00;;;22.80
19644;BMP180;9970;-36.854;174.870;2023-02-01T04:09:40;100655.00;;;22.70
19644;BMP180;9970;-36.854;174.870;2023-02-01T04:12:13;100656.00;;;22.70
19644;BMP180;9970;-36.854;174.870;2023-02-01T04:14:46;100655.00;;;22.70
19644;BMP180;9970;-36.854;174.870;2023-02-01T04:17:19;100650.00;;;22.70
19644;BMP180;9970;-36.854;174.870;2023-02-01T04:19:52;100656.00;;;22.70
19644;BMP180;9970;-36.854;174.870;2023-02-01T04:22:25;100653.00;;;22.70
19644;BMP180;9970;-36.854;174.870;2023-02-01T04:24:58;100651.00;;;22.70
19644;BMP180;9970;-36.854;174.870;2023-02-01T04:27:31;100655.00;;;22.70
19644;BMP180;9970;-36.854;174.870;2023-02-01T04:30:05;100662.00;;;22.70
19644;BMP180;9970;-36.854;174.870;2023-02-01T04:32:39;100659.00;;;22.70
19644;BMP180;9970;-36.854;174.870;2023-02-01T04:35:12;100664.00;;;22.60
19644;BMP180;9970;-36.854;174.870;2023-02-01T04:37:45;100665.00;;;22.60
19644;BMP180;9970;-36.854;174.870;2023-02-01T04:40:18;100666.00;;;22.60
19644;BMP180;9970;-36.854;174.870;2023-02-01T04:42:52;100666.00;;;22.60
19644;BMP180;9970;-36.854;174.870;2023-02-01T04:45:25;100675.00;;;22.50
19644;BMP180;9970;-36.854;174.870;2023-02-01T04:47:58;100669.00;;;22.60
19644;BMP180;9970;-36.854;174.870;2023-02-01T04:50:35;100670.00;;;22.50
19644;BMP180;9970;-36.854;174.870;2023-02-01T04:53:08;100681.00;;;22.50
19644;BMP180;9970;-36.854;174.870;2023-02-01T04:55:41;100675.00;;;22.60
19644;BMP180;9970;-36.854;174.870;2023-02-01T04:58:14;100687.00;;;22.50
19644;BMP180;9970;-36.854;174.870;2023-02-01T05:00:47;100683.00;;;22.50
19644;BMP180;9970;-36.854;174.870;2023-02-01T05:03:21;100682.00;;;22.50
19644;BMP180;9970;-36.854;174.870;2023-02-01T05:05:53;100676.00;;;22.50
19644;BMP180;9970;-36.854;174.870;2023-02-01T05:08:26;100675.00;;;22.50
19644;BMP180;9970;-36.854;174.870;2023-02-01T05:10:59;100685.00;;;22.50
19644;BMP180;9970;-36.854;174.870;2023-02-01T05:13:33;100677.00;;;22.50
19644;BMP180;9970;-36.854;174.870;2023-02-01T05:16:22;100683.00;;;22.50
19644;BMP180;9970;-36.854;174.870;2023-02-01T05:18:55;100692.00;;;22.50
19644;BMP180;9970;-36.854;174.870;2023-02-01T05:21:28;100692.00;;;22.50
19644;BMP180;9970;-36.854;174.870;2023-02-01T05:24:00;100682.00;;;22.50
19644;BMP180;9970;-36.854;174.870;2023-02-01T05:26:44;100686.00;;;22.50
19644;BMP180;9970;-36.854;174.870;2023-02-01T05:29:21;100697.00;;;22.50
19644;BMP180;9970;-36.854;174.870;2023-02-01T05:31:54;100692.00;;;22.50
19644;BMP180;9970;-36.854;174.870;2023-02-01T05:34:28;100695.00;;;22.50
19644;BMP180;9970;-36.854;174.870;2023-02-01T05:37:01;100699.00;;;22.50
19644;BMP180;9970;-36.854;174.870;2023-02-01T05:39:37;100702.00;;;22.50
19644;BMP180;9970;-36.854;174.870;2023-02-01T05:42:10;100703.00;;;22.50
19644;BMP180;9970;-36.854;174.870;2023-02-01T05:44:43;100695.00;;;22.40
19644;BMP180;9970;-36.854;174.870;2023-02-01T05:47:16;100702.00;;;22.40
19644;BMP180;9970;-36.854;174.870;2023-02-01T05:49:49;100706.00;;;22.40
19644;BMP180;9970;-36.854;174.870;2023-02-01T05:52:22;100698.00;;;22.40
19644;BMP180;9970;-36.854;174.870;2023-02-01T05:54:54;100706.00;;;22.40
19644;BMP180;9970;-36.854;174.870;2023-02-01T05:57:27;100706.00;;;22.30
19644;BMP180;9970;-36.854;174.870;2023-02-01T06:00:01;100710.00;;;22.30
19644;BMP180;9970;-36.854;174.870;2023-02-01T06:02:34;100719.00;;;22.30
19644;BMP180;9970;-36.854;174.870;2023-02-01T06:05:07;100720.00;;;22.30
19644;BMP180;9970;-36.854;174.870;2023-02-01T06:07:43;100730.00;;;22.30
19644;BMP180;9970;-36.854;174.870;2023-02-01T06:10:19;100714.00;;;22.30
19644;BMP180;9970;-36.854;174.870;2023-02-01T06:12:53;100719.00;;;22.30
19644;BMP180;9970;-36.854;174.870;2023-02-01T06:15:25;100721.00;;;22.30
19644;BMP180;9970;-36.854;174.870;2023-02-01T06:17:58;100724.00;;;22.30
19644;BMP180;9970;-36.854;174.870;2023-02-01T06:20:31;100726.00;;;22.30
19644;BMP180;9970;-36.854;174.870;2023-02-01T06:23:04;100728.00;;;22.30
19644;BMP180;9970;-36.854;174.870;2023-02-01T06:25:37;100731.00;;;22.30
19644;BMP180;9970;-36.854;174.870;2023-02-01T06:28:10;100729.00;;;22.30
19644;BMP180;9970;-36.854;174.870;2023-02-01T06:30:43;100737.00;;;22.30
19644;BMP180;9970;-36.854;174.870;2023-02-01T06:33:17;100742.00;;;22.30
19644;BMP180;9970;-36.854;174.870;2023-02-01T06:35:56;100736.00;;;22.20
19644;BMP180;9970;-36.854;174.870;2023-02-01T06:38:24;100738.00;;;22.20
19644;BMP180;9970;-36.854;174.870;2023-02-01T06:40:58;100748.00;;;22.20
19644;BMP180;9970;-36.854;174.870;2023-02-01T06:43:31;100752.00;;;22.20
19644;BMP180;9970;-36.854;174.870;2023-02-01T06:46:06;100757.00;;;22.20
19644;BMP180;9970;-36.854;174.870;2023-02-01T06:48:40;100760.00;;;22.20
19644;BMP180;9970;-36.854;174.870;2023-02-01T06:51:26;100765.00;;;22.20
19644;BMP180;9970;-36.854;174.870;2023-02-01T06:53:54;100768.00;;;22.20
19644;BMP180;9970;-36.854;174.870;2023-02-01T06:56:27;100774.00;;;22.10
19644;BMP180;9970;-36.854;174.870;2023-02-01T06:59:05;100781.00;;;22.10
19644;BMP180;9970;-36.854;174.870;2023-02-01T07:01:38;100801.00;;;22.10
19644;BMP180;9970;-36.854;174.870;2023-02-01T07:04:12;100787.00;;;22.10
19644;BMP180;9970;-36.854;174.870;2023-02-01T07:06:45;100791.00;;;22.10
19644;BMP180;9970;-36.854;174.870;2023-02-01T07:09:18;100792.00;;;22.10
19644;BMP180;9970;-36.854;174.870;2023-02-01T07:11:51;100798.00;;;22.10
19644;BMP180;9970;-36.854;174.870;2023-02-01T07:14:24;100804.00;;;22.10
19644;BMP180;9970;-36.854;174.870;2023-02-01T07:16:57;100808.00;;;22.10
19644;BMP180;9970;-36.854;174.870;2023-02-01T07:19:34;100809.00;;;22.10
19644;BMP180;9970;-36.854;174.870;2023-02-01T07:22:07;100809.00;;;22.10
19644;BMP180;9970;-36.854;174.870;2023-02-01T07:24:39;100820.00;;;22.10
19644;BMP180;9970;-36.854;174.870;2023-02-01T07:27:12;100820.00;;;22.10
19644;BMP180;9970;-36.854;174.870;2023-02-01T07:29:45;100825.00;;;22.00
19644;BMP180;9970;-36.854;174.870;2023-02-01T07:32:18;100833.00;;;22.00
19644;BMP180;9970;-36.854;174.870;2023-02-01T07:34:51;100844.00;;;22.00
19644;BMP180;9970;-36.854;174.870;2023-02-01T07:37:26;100852.00;;;22.00
19644;BMP180;9970;-36.854;174.870;2023-02-01T07:40:04;100853.00;;;22.00
19644;BMP180;9970;-36.854;174.870;2023-02-01T07:42:41;100859.00;;;22.00
19644;BMP180;9970;-36.854;174.870;2023-02-01T07:45:14;100853.00;;;22.00
19644;BMP180;9970;-36.854;174.870;2023-02-01T07:47:48;100861.00;;;22.00
19644;BMP180;9970;-36.854;174.870;2023-02-01T07:50:20;100871.00;;;22.00
19644;BMP180;9970;-36.854;174.870;2023-02-01T07:52:54;100877.00;;;22.00
19644;BMP180;9970;-36.854;174.870;2023-02-01T07:55:26;100870.00;;;22.00
19644;BMP180;9970;-36.854;174.870;2023-02-01T07:58:00;100873.00;;;22.00
19644;BMP180;9970;-36.854;174.870;2023-02-01T08:00:33;100882.00;;;22.00
19644;BMP180;9970;-36.854;174.870;2023-02-01T08:03:24;100884.00;;;22.00
19644;BMP180;9970;-36.854;174.870;2023-02-01T08:05:57;100887.00;;;21.90
19644;BMP180;9970;-36.854;174.870;2023-02-01T08:08:30;100894.00;;;21.90
19644;BMP180;9970;-36.854;174.870;2023-02-01T08:11:04;100898.00;;;21.90
19644;BMP180;9970;-36.854;174.870;2023-02-01T08:13:36;100904.00;;;21.90
19644;BMP180;9970;-36.854;174.870;2023-02-01T08:16:10;100900.00;;;21.90
19644;BMP180;9970;-36.854;174.870;2023-02-01T08:18:44;100907.00;;;22.00
19644;BMP180;9970;-36.854;174.870;2023-02-01T08:21:18;100904.00;;;22.00
19644;BMP180;9970;-36.854;174.870;2023-02-01T08:23:53;100911.00;;;22.00
19644;BMP180;9970;-36.854;174.870;2023-02-01T08:26:27;100916.00;;;21.90
19644;BMP180;9970;-36.854;174.870;2023-02-01T08:29:01;100920.00;;;21.90
19644;BMP180;9970;-36.854;174.870;2023-02-01T08:31:34;100916.00;;;21.90
19644;BMP180;9970;-36.854;174.870;2023-02-01T08:34:07;100919.00;;;21.90
19644;BMP180;9970;-36.854;174.870;2023-02-01T08:36:40;100926.00;;;21.90
19644;BMP180;9970;-36.854;174.870;2023-02-01T08:39:14;100936.00;;;21.90
19644;BMP180;9970;-36.854;174.870;2023-02-01T08:41:48;100935.00;;;21.90
19644;BMP180;9970;-36.854;174.870;2023-02-01T08:44:22;100942.00;;;21.90
19644;BMP180;9970;-36.854;174.870;2023-02-01T08:46:55;100938.00;;;21.90
19644;BMP180;9970;-36.854;174.870;2023-02-01T08:49:28;100935.00;;;21.90
19644;BMP180;9970;-36.854;174.870;2023-02-01T08:52:01;100935.00;;;21.90
19644;BMP180;9970;-36.854;174.870;2023-02-01T08:54:35;100942.00;;;21.90
19644;BMP180;9970;-36.854;174.870;2023-02-01T08:57:08;100947.00;;;21.90
19644;BMP180;9970;-36.854;174.870;2023-02-01T08:59:41;100940.00;;;21.90
19644;BMP180;9970;-36.854;174.870;2023-02-01T09:02:15;100953.00;;;21.90
19644;BMP180;9970;-36.854;174.870;2023-02-01T09:04:49;100960.00;;;21.90
19644;BMP180;9970;-36.854;174.870;2023-02-01T09:07:23;100960.00;;;21.90
19644;BMP180;9970;-36.854;174.870;2023-02-01T09:09:56;100963.00;;;21.90
19644;BMP180;9970;-36.854;174.870;2023-02-01T09:12:30;100957.00;;;21.90
19644;BMP180;9970;-36.854;174.870;2023-02-01T09:15:04;100956.00;;;21.90
19644;BMP180;9970;-36.854;174.870;2023-02-01T09:17:38;100959.00;;;21.90
19644;BMP180;9970;-36.854;174.870;2023-02-01T09:20:12;100957.00;;;21.90
19644;BMP180;9970;-36.854;174.870;2023-02-01T09:22:46;100957.00;;;21.90
19644;BMP180;9970;-36.854;174.870;2023-02-01T09:25:19;100962.00;;;21.90
19644;BMP180;9970;-36.854;174.870;2023-02-01T09:27:52;100958.00;;;21.80
19644;BMP180;9970;-36.854;174.870;2023-02-01T09:30:25;100952.00;;;21.80
19644;BMP180;9970;-36.854;174.870;2023-02-01T09:32:59;100952.00;;;21.80
19644;BMP180;9970;-36.854;174.870;2023-02-01T09:35:32;100963.00;;;21.80
19644;BMP180;9970;-36.854;174.870;2023-02-01T09:38:05;100951.00;;;21.80
19644;BMP180;9970;-36.854;174.870;2023-02-01T09:40:39;100942.00;;;21.80
19644;BMP180;9970;-36.854;174.870;2023-02-01T09:48:40;100958.00;;;21.80
19644;BMP180;9970;-36.854;174.870;2023-02-01T09:51:27;100954.00;;;21.80
19644;BMP180;9970;-36.854;174.870;2023-02-01T09:54:29;100960.00;;;21.70
19644;BMP180;9970;-36.854;174.870;2023-02-01T09:57:06;100966.00;;;21.70
19644;BMP180;9970;-36.854;174.870;2023-02-01T09:59:44;100970.00;;;21.70
19644;BMP180;9970;-36.854;174.870;2023-02-01T10:02:24;100974.00;;;21.70
19644;BMP180;9970;-36.854;174.870;2023-02-01T10:04:59;100980.00;;;21.70
19644;BMP180;9970;-36.854;174.870;2023-02-01T10:07:48;100972.00;;;21.70
19644;BMP180;9970;-36.854;174.870;2023-02-01T10:10:37;100976.00;;;21.70
19644;BMP180;9970;-36.854;174.870;2023-02-01T10:13:38;100972.00;;;21.70
19644;BMP180;9970;-36.854;174.870;2023-02-01T10:16:16;100970.00;;;21.70
19644;BMP180;9970;-36.854;174.870;2023-02-01T10:18:57;100975.00;;;21.70
19644;BMP180;9970;-36.854;174.870;2023-02-01T10:21:55;100965.00;;;21.70
19644;BMP180;9970;-36.854;174.870;2023-02-01T10:27:13;100978.00;;;21.70
19644;BMP180;9970;-36.854;174.870;2023-02-01T10:29:54;100980.00;;;21.70
19644;BMP180;9970;-36.854;174.870;2023-02-01T10:32:27;100980.00;;;21.70
19644;BMP180;9970;-36.854;174.870;2023-02-01T10:35:05;100981.00;;;21.70
19644;BMP180;9970;-36.854;174.870;2023-02-01T10:37:36;100971.00;;;21.70
19644;BMP180;9970;-36.854;174.870;2023-02-01T10:40:26;100970.00;;;21.70
19644;BMP180;9970;-36.854;174.870;2023-02-01T10:43:02;100975.00;;;21.70
19644;BMP180;9970;-36.854;174.870;2023-02-01T10:45:35;100970.00;;;21.70
19644;BMP180;9970;-36.854;174.870;2023-02-01T10:48:10;100964.00;;;21.70
19644;BMP180;9970;-36.854;174.870;2023-02-01T10:51:00;100967.00;;;21.70
19644;BMP180;9970;-36.854;174.870;2023-02-01T10:53:54;100964.00;;;21.70
19644;BMP180;9970;-36.854;174.870;2023-02-01T10:56:28;100974.00;;;21.70
19644;BMP180;9970;-36.854;174.870;2023-02-01T10:59:14;100966.00;;;21.70
19644;BMP180;9970;-36.854;174.870;2023-02-01T11:01:44;100956.00;;;21.70
19644;BMP180;9970;-36.854;174.870;2023-02-01T11:04:21;100961.00;;;21.70
19644;BMP180;9970;-36.854;174.870;2023-02-01T11:07:17;100965.00;;;21.70
19644;BMP180;9970;-36.854;174.870;2023-02-01T11:09:53;100954.00;;;21.70
19644;BMP180;9970;-36.854;174.870;2023-02-01T11:12:37;100969.00;;;21.70
19644;BMP180;9970;-36.854;174.870;2023-02-01T11:15:21;100967.00;;;21.60
19644;BMP180;9970;-36.854;174.870;2023-02-01T11:17:55;100958.00;;;21.70
19644;BMP180;9970;-36.854;174.870;2023-02-01T11:20:37;100958.00;;;21.60
19644;BMP180;9970;-36.854;174.870;2023-02-01T11:23:13;100961.00;;;21.60
19644;BMP180;9970;-36.854;174.870;2023-02-01T11:25:54;100965.00;;;21.60
19644;BMP180;9970;-36.854;174.870;2023-02-01T11:28:31;100949.00;;;21.60
19644;BMP180;9970;-36.854;174.870;2023-02-01T11:31:12;100956.00;;;21.60
19644;BMP180;9970;-36.854;174.870;2023-02-01T11:33:46;100964.00;;;21.70
19644;BMP180;9970;-36.854;174.870;2023-02-01T11:36:17;100958.00;;;21.70
19644;BMP180;9970;-36.854;174.870;2023-02-01T11:42:17;100945.00;;;21.60
19644;BMP180;9970;-36.854;174.870;2023-02-01T11:44:51;100956.00;;;21.60
19644;BMP180;9970;-36.854;174.870;2023-02-01T11:47:30;100945.00;;;21.60
19644;BMP180;9970;-36.854;174.870;2023-02-01T11:50:17;100932.00;;;21.60
19644;BMP180;9970;-36.854;174.870;2023-02-01T11:53:03;100940.00;;;21.60
19644;BMP180;9970;-36.854;174.870;2023-02-01T11:55:45;100941.00;;;21.60
19644;BMP180;9970;-36.854;174.870;2023-02-01T12:09:28;100934.00;;;21.60
19644;BMP180;9970;-36.854;174.870;2023-02-01T12:12:26;100936.00;;;21.60
19644;BMP180;9970;-36.854;174.870;2023-02-01T12:15:05;100936.00;;;21.60
19644;BMP180;9970;-36.854;174.870;2023-02-01T12:23:19;100960.00;;;21.60
19644;BMP180;9970;-36.854;174.870;2023-02-01T12:31:55;100962.00;;;21.50
19644;BMP180;9970;-36.854;174.870;2023-02-01T12:42:33;100941.00;;;21.60
19644;BMP180;9970;-36.854;174.870;2023-02-01T12:48:29;100946.00;;;21.60
19644;BMP180;9970;-36.854;174.870;2023-02-01T12:51:07;100947.00;;;21.50
19644;BMP180;9970;-36.854;174.870;2023-02-01T12:53:59;100939.00;;;21.50
19644;BMP180;9970;-36.854;174.870;2023-02-01T12:56:38;100952.00;;;21.50
19644;BMP180;9970;-36.854;174.870;2023-02-01T13:05:20;100945.00;;;21.50
19644;BMP180;9970;-36.854;174.870;2023-02-01T13:08:02;100943.00;;;21.50
19644;BMP180;9970;-36.854;174.870;2023-02-01T13:10:36;100942.00;;;21.50
19644;BMP180;9970;-36.854;174.870;2023-02-01T13:13:42;100940.00;;;21.60
19644;BMP180;9970;-36.854;174.870;2023-02-01T13:16:21;100940.00;;;21.60
19644;BMP180;9970;-36.854;174.870;2023-02-01T13:18:49;100943.00;;;21.60
19644;BMP180;9970;-36.854;174.870;2023-02-01T13:21:31;100944.00;;;21.60
19644;BMP180;9970;-36.854;174.870;2023-02-01T13:24:03;100938.00;;;21.60
19644;BMP180;9970;-36.854;174.870;2023-02-01T13:26:35;100941.00;;;21.60
19644;BMP180;9970;-36.854;174.870;2023-02-01T13:29:09;100943.00;;;21.60
19644;BMP180;9970;-36.854;174.870;2023-02-01T13:34:49;100946.00;;;21.60
19644;BMP180;9970;-36.854;174.870;2023-02-01T13:42:57;100950.00;;;21.60
19644;BMP180;9970;-36.854;174.870;2023-02-01T13:45:32;100958.00;;;21.60
19644;BMP180;9970;-36.854;174.870;2023-02-01T13:48:06;100951.00;;;21.60
19644;BMP180;9970;-36.854;174.870;2023-02-01T13:50:41;100954.00;;;21.50
19644;BMP180;9970;-36.854;174.870;2023-02-01T13:53:22;100959.00;;;21.60
19644;BMP180;9970;-36.854;174.870;2023-02-01T13:56:03;100953.00;;;21.60
19644;BMP180;9970;-36.854;174.870;2023-02-01T13:58:39;100946.00;;;21.60
19644;BMP180;9970;-36.854;174.870;2023-02-01T14:04:02;100951.00;;;21.60
19644;BMP180;9970;-36.854;174.870;2023-02-01T14:06:44;100943.00;;;21.60
19644;BMP180;9970;-36.854;174.870;2023-02-01T14:09:40;100944.00;;;21.60
19644;BMP180;9970;-36.854;174.870;2023-02-01T14:11:58;100933.00;;;21.60
19644;BMP180;9970;-36.854;174.870;2023-02-01T14:20:43;100920.00;;;21.60
19644;BMP180;9970;-36.854;174.870;2023-02-01T14:22:35;100917.00;;;21.60
19644;BMP180;9970;-36.854;174.870;2023-02-01T14:25:14;100918.00;;;21.60
19644;BMP180;9970;-36.854;174.870;2023-02-01T14:27:43;100912.00;;;21.60
19644;BMP180;9970;-36.854;174.870;2023-02-01T14:30:16;100909.00;;;21.60
19644;BMP180;9970;-36.854;174.870;2023-02-01T14:32:50;100906.00;;;21.60
19644;BMP180;9970;-36.854;174.870;2023-02-01T14:35:24;100897.00;;;21.60
19644;BMP180;9970;-36.854;174.870;2023-02-01T14:38:01;100898.00;;;21.60
19644;BMP180;9970;-36.854;174.870;2023-02-01T14:40:35;100896.00;;;21.60
19644;BMP180;9970;-36.854;174.870;2023-02-01T14:43:09;100897.00;;;21.60
19644;BMP180;9970;-36.854;174.870;2023-02-01T14:45:47;100897.00;;;21.60
19644;BMP180;9970;-36.854;174.870;2023-02-01T14:50:53;100879.00;;;21.60
19644;BMP180;9970;-36.854;174.870;2023-02-01T14:53:33;100893.00;;;21.60
19644;BMP180;9970;-36.854;174.870;2023-02-01T14:56:08;100882.00;;;21.60
19644;BMP180;9970;-36.854;174.870;2023-02-01T14:59:08;100882.00;;;21.60
19644;BMP180;9970;-36.854;174.870;2023-02-01T15:01:36;100855.00;;;21.60
19644;BMP180;9970;-36.854;174.870;2023-02-01T15:04:17;100863.00;;;21.60
19644;BMP180;9970;-36.854;174.870;2023-02-01T15:07:04;100862.00;;;21.60
19644;BMP180;9970;-36.854;174.870;2023-02-01T15:09:34;100863.00;;;21.60
19644;BMP180;9970;-36.854;174.870;2023-02-01T15:12:23;100864.00;;;21.60
19644;BMP180;9970;-36.854;174.870;2023-02-01T15:17:40;100882.00;;;21.60
19644;BMP180;9970;-36.854;174.870;2023-02-01T15:20:24;100875.00;;;21.60
19644;BMP180;9970;-36.854;174.870;2023-02-01T15:23:00;100870.00;;;21.60
19644;BMP180;9970;-36.854;174.870;2023-02-01T15:25:37;100866.00;;;21.60
19644;BMP180;9970;-36.854;174.870;2023-02-01T15:28:16;100867.00;;;21.60
19644;BMP180;9970;-36.854;174.870;2023-02-01T15:31:02;100876.00;;;21.60
19644;BMP180;9970;-36.854;174.870;2023-02-01T15:33:36;100869.00;;;21.60
19644;BMP180;9970;-36.854;174.870;2023-02-01T15:36:10;100862.00;;;21.60
19644;BMP180;9970;-36.854;174.870;2023-02-01T15:38:44;100871.00;;;21.60
19644;BMP180;9970;-36.854;174.870;2023-02-01T15:41:28;100871.00;;;21.60
19644;BMP180;9970;-36.854;174.870;2023-02-01T15:46:39;100871.00;;;21.60
19644;BMP180;9970;-36.854;174.870;2023-02-01T15:49:28;100877.00;;;21.50
19644;BMP180;9970;-36.854;174.870;2023-02-01T15:52:01;100875.00;;;21.50
19644;BMP180;9970;-36.854;174.870;2023-02-01T15:54:49;100872.00;;;21.50
19644;BMP180;9970;-36.854;174.870;2023-02-01T15:57:27;100874.00;;;21.50
19644;BMP180;9970;-36.854;174.870;2023-02-01T16:00:06;100881.00;;;21.50
19644;BMP180;9970;-36.854;174.870;2023-02-01T16:02:51;100879.00;;;21.50
19644;BMP180;9970;-36.854;174.870;2023-02-01T16:05:39;100881.00;;;21.60